Time;durP1;ratioP1;P1;durP2;ratioP2;P2;SDS_P1;SDS_P2;PMS_P1;PMS_P2;Temp;Humidity;BMP_temperature;BMP_pressure;BME280_temperature;BME280_humidity;BME280_pressure;Samples;Min_cycle;Max_cycle;Signal;HPM_P1;HPM_P2
2022/05/30 00:01:11;;;;;;;2.87;2.10;;;7.10;99.90;;;;;;5075606;28;20676;-86
2022/05/30 00:03:40;;;;;;;2.93;2.70;;;7.50;99.90;;;;;;5077320;28;20622;-86
2022/05/30 00:06:09;;;;;;;2.67;2.47;;;7.00;99.90;;;;;;5078638;28;20662;-87
2022/05/30 00:08:37;;;;;;;3.60;2.53;;;7.40;99.90;;;;;;5073619;28;20574;-86
2022/05/30 00:11:06;;;;;;;3.77;3.40;;;6.80;99.90;;;;;;5074597;28;20672;-87
2022/05/30 00:13:33;;;;;;;2.30;2.07;;;7.10;99.90;;;;;;5078214;28;20632;-87
2022/05/30 00:16:04;;;;;;;3.10;2.20;;;7.40;99.90;;;;;;5075340;28;20632;-87
2022/05/30 00:18:31;;;;;;;3.00;2.80;;;7.30;99.90;;;;;;5072185;28;20640;-87
2022/05/30 00:20:59;;;;;;;5.07;3.10;;;7.10;99.90;;;;;;5076420;28;20660;-87
2022/05/30 00:23:26;;;;;;;3.67;2.50;;;7.30;99.90;;;;;;5073224;28;20616;-87
2022/05/30 00:25:53;;;;;;;4.90;2.60;;;7.00;99.90;;;;;;5079026;28;20624;-87
2022/05/30 00:28:22;;;;;;;2.83;2.63;;;6.90;99.90;;;;;;5075815;28;20655;-87
2022/05/30 00:30:50;;;;;;;3.20;2.80;;;6.70;99.90;;;;;;5072396;28;20830;-88
2022/05/30 00:33:17;;;;;;;3.40;2.70;;;7.20;99.90;;;;;;5075775;28;20608;-87
2022/05/30 00:35:44;;;;;;;3.07;2.40;;;6.50;99.90;;;;;;5071863;28;21550;-87
2022/05/30 00:38:13;;;;;;;4.67;4.03;;;6.90;99.90;;;;;;5077807;28;20585;-87
2022/05/30 00:40:41;;;;;;;3.10;2.67;;;6.80;99.90;;;;;;5077108;28;20636;-86
2022/05/30 00:43:26;;;;;;;4.30;3.53;;;6.70;99.90;;;;;;5072693;28;20627;-87
2022/05/30 00:45:55;;;;;;;4.03;3.73;;;7.10;99.90;;;;;;5068277;28;20951;-85
2022/05/30 00:48:25;;;;;;;3.93;3.10;;;6.70;99.90;;;;;;5071570;28;21204;-87
2022/05/30 00:50:58;;;;;;;3.60;3.30;;;6.40;99.90;;;;;;5072002;28;21623;-88
2022/05/30 00:53:26;;;;;;;3.07;2.87;;;6.90;99.90;;;;;;5075037;28;20683;-86
2022/05/30 00:55:53;;;;;;;3.40;3.20;;;6.50;99.90;;;;;;5070700;28;20633;-86
2022/05/30 00:58:22;;;;;;;2.67;2.47;;;6.80;99.90;;;;;;5073119;28;20615;-87
2022/05/30 01:00:49;;;;;;;3.83;3.10;;;6.70;99.90;;;;;;5070018;28;20986;-87
2022/05/30 01:08:46;;;;;;;3.70;3.30;;;6.30;99.90;;;;;;5073449;28;20636;-87
2022/05/30 01:11:13;;;;;;;3.27;2.90;;;6.70;99.90;;;;;;5076509;28;20675;-87
2022/05/30 01:13:40;;;;;;;3.97;3.37;;;6.70;99.90;;;;;;5076486;28;20619;-87
2022/05/30 01:16:07;;;;;;;6.00;3.27;;;6.80;99.90;;;;;;5069806;28;20670;-86
2022/05/30 01:18:40;;;;;;;4.90;3.50;;;6.30;99.90;;;;;;5073374;28;20698;-87
2022/05/30 01:21:30;;;;;;;3.90;3.57;;;6.70;99.90;;;;;;5072867;28;21393;-87
2022/05/30 01:24:14;;;;;;;3.67;3.40;;;6.80;99.90;;;;;;5075430;28;20625;-85
2022/05/30 01:27:14;;;;;;;5.50;3.30;;;6.60;99.90;;;;;;5075354;28;20678;-87
2022/05/30 01:29:47;;;;;;;5.60;3.97;;;6.70;99.90;;;;;;5035051;28;20681;-87
2022/05/30 01:32:18;;;;;;;7.47;3.57;;;7.00;99.90;;;;;;5069635;28;20613;-87
2022/05/30 01:34:45;;;;;;;3.93;3.63;;;6.80;99.90;;;;;;5072722;28;20627;-86
2022/05/30 01:37:12;;;;;;;5.87;3.87;;;6.60;99.90;;;;;;5068996;28;20647;-88
2022/05/30 01:39:39;;;;;;;3.30;3.10;;;6.40;99.90;;;;;;5076861;28;20715;-88
2022/05/30 01:42:06;;;;;;;3.87;3.57;;;6.80;99.90;;;;;;5071004;28;20628;-87
2022/05/30 01:44:33;;;;;;;5.10;3.77;;;6.60;99.90;;;;;;5074621;28;20616;-88
2022/05/30 01:47:02;;;;;;;3.27;3.07;;;6.60;99.90;;;;;;5072418;28;20635;-88
2022/05/30 01:49:28;;;;;;;3.23;2.93;;;6.50;99.90;;;;;;5073333;28;20631;-87
2022/05/30 01:51:56;;;;;;;3.20;3.00;;;6.70;99.90;;;;;;5073386;28;20667;-87
2022/05/30 01:54:23;;;;;;;3.70;3.40;;;6.80;99.90;;;;;;5069507;28;20694;-87
2022/05/30 01:56:51;;;;;;;4.37;2.60;;;6.70;99.90;;;;;;5054377;28;20632;-87
2022/05/30 01:59:18;;;;;;;5.27;4.43;;;6.70;99.90;;;;;;5071013;28;21241;-88
2022/05/30 02:01:45;;;;;;;3.23;3.00;;;6.50;99.90;;;;;;5072280;28;20634;-87
2022/05/30 02:04:14;;;;;;;3.43;2.77;;;6.70;99.90;;;;;;5073043;28;20639;-87
2022/05/30 02:06:41;;;;;;;3.53;3.23;;;6.40;99.90;;;;;;5071101;28;20640;-87
2022/05/30 02:09:08;;;;;;;3.47;3.17;;;6.40;99.90;;;;;;5069465;28;20636;-88
2022/05/30 02:11:36;;;;;;;3.47;3.17;;;6.30;99.90;;;;;;5071532;28;20672;-87
2022/05/30 02:14:03;;;;;;;3.60;3.40;;;6.40;99.90;;;;;;5073918;28;20989;-86
2022/05/30 02:19:20;;;;;;;3.53;3.13;;;6.40;99.90;;;;;;5070282;28;20638;-87
2022/05/30 02:21:47;;;;;;;3.67;3.30;;;6.60;99.90;;;;;;5071462;28;20626;-88
2022/05/30 02:24:16;;;;;;;3.90;2.93;;;6.50;99.90;;;;;;5083394;28;20624;-87
2022/05/30 02:26:43;;;;;;;4.67;3.47;;;6.50;99.90;;;;;;5079090;28;20649;-87
2022/05/30 02:29:10;;;;;;;3.70;3.20;;;6.40;99.90;;;;;;5081504;28;20650;-88
2022/05/30 02:31:37;;;;;;;3.33;3.03;;;5.90;99.90;;;;;;5073791;28;20679;-88
2022/05/30 02:36:50;;;;;;;3.40;3.00;;;6.40;99.90;;;;;;5075630;28;21189;-87
2022/05/30 02:39:20;;;;;;;3.30;3.10;;;6.30;99.90;;;;;;5079094;28;20579;-87
2022/05/30 02:41:46;;;;;;;3.87;3.67;;;6.40;99.90;;;;;;5072660;28;20963;-87
2022/05/30 02:44:14;;;;;;;3.13;2.93;;;5.70;99.90;;;;;;5076768;28;20646;-86
2022/05/30 02:46:41;;;;;;;3.87;3.57;;;6.30;99.90;;;;;;5080566;28;20661;-87
2022/05/30 02:49:09;;;;;;;4.00;3.70;;;6.20;99.90;;;;;;5073910;28;20616;-87
2022/05/30 02:51:35;;;;;;;3.73;3.30;;;6.10;99.90;;;;;;5077720;28;20679;-87
2022/05/30 02:54:03;;;;;;;4.50;3.60;;;6.00;99.90;;;;;;5080805;28;20632;-86
2022/05/30 02:56:30;;;;;;;3.70;3.40;;;6.10;99.90;;;;;;5069211;28;20636;-88
2022/05/30 02:58:58;;;;;;;3.97;3.67;;;6.10;99.90;;;;;;5077953;28;20653;-88
2022/05/30 03:01:26;;;;;;;3.70;3.00;;;5.80;99.90;;;;;;5072535;28;21231;-88
2022/05/30 03:03:53;;;;;;;4.00;3.57;;;5.50;99.90;;;;;;5078436;28;20625;-87
2022/05/30 03:06:20;;;;;;;3.33;3.10;;;6.00;99.90;;;;;;5072124;28;20632;-87
2022/05/30 03:08:47;;;;;;;3.20;3.00;;;6.10;99.90;;;;;;5073979;28;20675;-87
2022/05/30 03:11:15;;;;;;;5.30;2.97;;;6.00;99.90;;;;;;5073973;28;21229;-87
2022/05/30 03:13:41;;;;;;;4.30;3.27;;;6.20;99.90;;;;;;5077481;28;21180;-87
2022/05/30 03:16:08;;;;;;;3.83;3.43;;;6.30;99.90;;;;;;5074878;28;20626;-87
2022/05/30 03:18:35;;;;;;;3.40;2.57;;;6.30;99.90;;;;;;5074518;28;20633;-87
2022/05/30 03:21:02;;;;;;;3.90;3.57;;;5.80;99.90;;;;;;5075704;28;20655;-87
2022/05/30 03:23:29;;;;;;;3.53;3.23;;;6.10;99.90;;;;;;5080483;28;20621;-87
2022/05/30 03:25:56;;;;;;;5.17;4.77;;;5.90;99.90;;;;;;5078297;28;20630;-87
2022/05/30 03:28:25;;;;;;;4.53;4.13;;;6.00;99.90;;;;;;5076912;28;20636;-88
2022/05/30 03:30:52;;;;;;;3.77;3.53;;;6.30;99.90;;;;;;5075615;28;20671;-88
2022/05/30 03:33:20;;;;;;;5.07;4.03;;;6.10;99.90;;;;;;5076995;28;20640;-89
2022/05/30 03:35:48;;;;;;;4.20;3.90;;;5.90;99.90;;;;;;5075047;28;20636;-87
2022/05/30 03:38:14;;;;;;;3.70;3.33;;;5.90;99.90;;;;;;5072801;28;20609;-90
2022/05/30 03:40:42;;;;;;;4.10;3.63;;;5.70;99.90;;;;;;5079594;28;20640;-88
2022/05/30 03:43:10;;;;;;;3.40;3.10;;;5.90;99.90;;;;;;5073863;28;20640;-88
2022/05/30 03:45:43;;;;;;;4.50;3.73;;;6.10;99.90;;;;;;5073381;28;20612;-88
2022/05/30 03:48:12;;;;;;;5.27;4.80;;;6.00;99.90;;;;;;5071233;28;21505;-88
2022/05/30 03:50:40;;;;;;;15.37;12.27;;;6.00;99.90;;;;;;5072720;28;20671;-87
2022/05/30 03:53:07;;;;;;;17.17;15.47;;;6.10;99.90;;;;;;5076306;28;20659;-87
2022/05/30 03:55:36;;;;;;;88.10;78.83;;;5.90;99.90;;;;;;5078932;28;20632;-88
2022/05/30 03:58:04;;;;;;;92.27;82.80;;;6.00;99.90;;;;;;5077645;28;20624;-87
2022/05/30 04:00:32;;;;;;;63.90;57.10;;;5.50;99.90;;;;;;5075147;28;20659;-87
2022/05/30 04:03:01;;;;;;;44.57;39.97;;;5.80;99.90;;;;;;5075760;28;20629;-88
2022/05/30 04:05:29;;;;;;;29.20;26.07;;;6.20;99.90;;;;;;5079504;28;20631;-87
2022/05/30 04:07:57;;;;;;;14.30;13.00;;;6.00;99.90;;;;;;5070396;28;20669;-87
2022/05/30 04:10:24;;;;;;;7.80;7.10;;;6.00;99.90;;;;;;5073348;28;20657;-87
2022/05/30 04:12:51;;;;;;;6.77;6.27;;;5.60;99.90;;;;;;5072261;28;20633;-88
2022/05/30 04:15:21;;;;;;;5.33;4.97;;;5.90;99.90;;;;;;5077008;28;20586;-88
2022/05/30 04:17:48;;;;;;;4.90;4.50;;;6.00;99.90;;;;;;5070509;28;20617;-86
2022/05/30 04:20:18;;;;;;;5.10;4.50;;;6.10;99.90;;;;;;5077893;28;21023;-87
2022/05/30 04:22:45;;;;;;;4.50;4.20;;;5.90;99.90;;;;;;5077796;28;20605;-87
2022/05/30 04:25:12;;;;;;;3.93;3.63;;;5.80;99.90;;;;;;5070472;28;22122;-87
2022/05/30 04:27:39;;;;;;;3.83;3.60;;;5.90;99.90;;;;;;5071791;28;20609;-87
2022/05/30 04:30:08;;;;;;;4.67;4.27;;;6.30;99.90;;;;;;5074977;28;20655;-87
2022/05/30 04:32:36;;;;;;;4.00;3.70;;;6.30;99.90;;;;;;5074228;28;21371;-87
2022/05/30 04:35:04;;;;;;;5.30;3.40;;;6.00;99.90;;;;;;5066370;28;20640;-87
2022/05/30 04:37:32;;;;;;;5.63;3.90;;;6.10;99.90;;;;;;5077489;28;20620;-86
2022/05/30 04:39:59;;;;;;;4.90;4.50;;;6.40;99.90;;;;;;5073990;28;21269;-87
2022/05/30 04:42:26;;;;;;;4.50;4.10;;;6.00;99.90;;;;;;5071778;28;20836;-86
2022/05/30 04:44:53;;;;;;;4.80;4.50;;;6.10;99.90;;;;;;5071657;28;20968;-87
2022/05/30 04:47:19;;;;;;;4.83;4.40;;;6.10;99.90;;;;;;5070789;28;20641;-86
2022/05/30 04:49:47;;;;;;;4.80;4.40;;;6.50;99.90;;;;;;5072874;28;21015;-88
2022/05/30 04:52:14;;;;;;;4.97;4.57;;;6.40;99.90;;;;;;5067879;28;21276;-88
2022/05/30 04:54:42;;;;;;;4.70;4.37;;;6.50;99.90;;;;;;5066056;28;20625;-89
2022/05/30 04:57:11;;;;;;;4.67;4.20;;;6.20;99.90;;;;;;5081053;28;20616;-90
2022/05/30 04:59:41;;;;;;;5.70;4.83;;;6.80;99.90;;;;;;5078486;28;20645;-89
2022/05/30 05:02:09;;;;;;;4.83;4.43;;;6.70;99.90;;;;;;5079800;28;20617;-89
2022/05/30 05:04:38;;;;;;;5.13;4.47;;;6.70;99.90;;;;;;5073864;28;20638;-89
2022/05/30 05:07:05;;;;;;;5.30;4.80;;;6.80;99.90;;;;;;5075954;28;20656;-90
2022/05/30 05:09:46;;;;;;;5.13;4.83;;;6.90;99.90;;;;;;5076203;28;20661;-90
2022/05/30 05:12:15;;;;;;;5.60;5.20;;;6.90;99.90;;;;;;5077873;28;20678;-90
2022/05/30 05:14:42;;;;;;;5.43;4.93;;;6.90;99.90;;;;;;5075479;28;20637;-89
2022/05/30 05:17:10;;;;;;;6.17;5.03;;;6.90;99.90;;;;;;5078513;28;20632;-89
2022/05/30 05:19:38;;;;;;;6.03;5.37;;;7.10;99.90;;;;;;5078099;28;20657;-90
2022/05/30 05:22:05;;;;;;;4.73;4.40;;;7.30;99.90;;;;;;5071646;28;21205;-90
2022/05/30 05:24:33;;;;;;;6.00;4.40;;;7.30;99.90;;;;;;5077220;28;21256;-87
2022/05/30 05:27:01;;;;;;;4.97;4.67;;;7.20;99.90;;;;;;5071593;28;20626;-85
2022/05/30 05:29:28;;;;;;;4.37;4.07;;;7.50;99.90;;;;;;5072582;28;20623;-87
2022/05/30 05:31:55;;;;;;;4.53;4.13;;;7.70;99.90;;;;;;5074893;28;20649;-86
2022/05/30 05:34:22;;;;;;;5.20;4.50;;;7.60;99.90;;;;;;5075128;28;21191;-87
2022/05/30 05:36:49;;;;;;;6.63;4.80;;;7.80;99.90;;;;;;5074055;28;20637;-86
2022/05/30 05:39:18;;;;;;;4.97;4.57;;;7.70;99.90;;;;;;5068433;28;20637;-87
2022/05/30 05:41:45;;;;;;;4.70;4.23;;;7.90;99.90;;;;;;5073906;28;20621;-85
2022/05/30 05:44:16;;;;;;;8.50;4.77;;;8.00;99.90;;;;;;5075721;28;20632;-85
2022/05/30 05:46:43;;;;;;;5.50;4.47;;;8.20;99.90;;;;;;5070494;28;20627;-84
2022/05/30 05:49:10;;;;;;;5.07;4.63;;;7.90;99.90;;;;;;5071845;28;20628;-86
2022/05/30 05:51:38;;;;;;;5.10;4.60;;;7.90;99.90;;;;;;5078195;28;20676;-85
2022/05/30 05:54:05;;;;;;;5.53;4.60;;;8.30;99.90;;;;;;5074424;28;20694;-85
2022/05/30 05:56:33;;;;;;;4.77;4.30;;;8.50;99.90;;;;;;5069184;28;20641;-84
2022/05/30 05:59:01;;;;;;;4.37;4.07;;;8.70;99.90;;;;;;5072805;28;20613;-85
2022/05/30 06:01:31;;;;;;;6.53;4.30;;;8.30;99.90;;;;;;5070546;28;20666;-86
2022/05/30 06:04:00;;;;;;;4.77;4.30;;;9.10;99.90;;;;;;5076977;28;20628;-84
2022/05/30 06:06:27;;;;;;;4.20;3.90;;;9.10;99.90;;;;;;5072429;28;20665;-86
2022/05/30 06:08:56;;;;;;;5.90;4.23;;;9.00;99.90;;;;;;5074560;28;20636;-86
2022/05/30 06:11:24;;;;;;;4.53;4.20;;;9.30;99.90;;;;;;5076567;28;20665;-87
2022/05/30 06:13:51;;;;;;;5.37;4.97;;;8.80;99.90;;;;;;5075747;28;20629;-86
2022/05/30 06:16:20;;;;;;;4.87;4.40;;;8.90;99.90;;;;;;5074269;28;20678;-86
2022/05/30 06:18:49;;;;;;;6.50;4.63;;;9.80;99.90;;;;;;5075574;28;20613;-87
2022/05/30 06:21:16;;;;;;;6.40;4.30;;;9.40;99.90;;;;;;5072506;28;20628;-86
2022/05/30 06:23:45;;;;;;;4.33;3.90;;;9.20;99.90;;;;;;5076107;28;20620;-86
2022/05/30 06:26:12;;;;;;;4.50;4.07;;;9.60;99.90;;;;;;5079265;28;20663;-86
2022/05/30 06:28:40;;;;;;;4.30;3.90;;;9.50;99.90;;;;;;5073751;28;20632;-87
2022/05/30 06:31:08;;;;;;;4.90;4.20;;;9.90;99.90;;;;;;5073972;28;20992;-86
2022/05/30 06:33:36;;;;;;;5.70;4.00;;;10.20;99.90;;;;;;5074939;28;20629;-85
2022/05/30 06:36:07;;;;;;;4.80;4.40;;;10.30;99.90;;;;;;5076048;28;21486;-87
2022/05/30 06:38:34;;;;;;;4.10;3.80;;;10.20;99.90;;;;;;5080418;28;20628;-85
2022/05/30 06:41:13;;;;;;;5.03;3.60;;;10.20;99.90;;;;;;5080791;28;20642;-85
2022/05/30 06:43:40;;;;;;;4.57;4.13;;;10.30;99.90;;;;;;5076547;28;20609;-87
2022/05/30 06:46:08;;;;;;;4.33;3.10;;;10.80;99.90;;;;;;5076904;28;20682;-85
2022/05/30 06:48:35;;;;;;;5.43;4.93;;;10.60;99.90;;;;;;5076932;28;20625;-87
2022/05/30 06:51:05;;;;;;;4.30;3.90;;;10.80;99.90;;;;;;5076800;28;20643;-85
2022/05/30 06:53:33;;;;;;;3.33;3.03;;;10.60;99.90;;;;;;5076133;28;21266;-87
2022/05/30 06:56:00;;;;;;;4.60;3.53;;;11.10;99.90;;;;;;5081860;28;20759;-88
2022/05/30 06:58:27;;;;;;;4.47;4.07;;;10.90;99.90;;;;;;5073883;28;21168;-88
2022/05/30 07:01:00;;;;;;;5.63;4.00;;;11.30;99.90;;;;;;5076943;28;20637;-86
2022/05/30 07:03:27;;;;;;;3.80;3.50;;;11.50;99.90;;;;;;5071907;28;20643;-86
2022/05/30 07:05:54;;;;;;;4.10;3.70;;;11.40;99.90;;;;;;5076353;28;20664;-87
2022/05/30 07:08:23;;;;;;;4.30;3.33;;;11.80;99.90;;;;;;5082703;28;20640;-85
2022/05/30 07:10:51;;;;;;;3.93;3.27;;;12.20;99.90;;;;;;5072214;28;20678;-85
2022/05/30 07:13:18;;;;;;;4.53;3.30;;;12.10;99.90;;;;;;5079237;28;20663;-86
2022/05/30 07:15:48;;;;;;;6.27;4.40;;;12.30;99.90;;;;;;5075507;28;20687;-87
2022/05/30 07:18:17;;;;;;;5.50;3.50;;;12.40;99.90;;;;;;5076031;28;20629;-88
2022/05/30 07:20:44;;;;;;;3.87;3.27;;;12.60;99.90;;;;;;5078457;28;20628;-91
2022/05/30 07:23:13;;;;;;;3.43;3.13;;;12.80;99.90;;;;;;5085155;28;20635;-90
2022/05/30 07:25:41;;;;;;;3.33;3.13;;;12.90;99.90;;;;;;5082236;28;20657;-89
2022/05/30 07:28:12;;;;;;;5.73;4.13;;;13.10;99.90;;;;;;5084236;28;20628;-89
2022/05/30 07:30:40;;;;;;;5.23;3.20;;;13.20;99.90;;;;;;5078159;28;20640;-90
2022/05/30 07:33:07;;;;;;;5.20;3.73;;;13.40;99.90;;;;;;5082368;28;20629;-88
2022/05/30 07:35:34;;;;;;;8.80;3.63;;;13.20;99.90;;;;;;5075424;28;20641;-87
2022/05/30 07:38:02;;;;;;;3.83;3.53;;;13.30;99.90;;;;;;5079128;28;20620;-89
2022/05/30 07:40:33;;;;;;;10.97;3.93;;;13.50;99.90;;;;;;5075173;28;20610;-89
2022/05/30 07:43:03;;;;;;;7.00;3.83;;;13.60;99.90;;;;;;5078314;28;20695;-90
2022/05/30 07:45:30;;;;;;;3.90;3.50;;;13.60;99.90;;;;;;5086101;28;20649;-89
2022/05/30 07:48:01;;;;;;;5.80;3.97;;;13.70;99.90;;;;;;5086196;28;20629;-89
2022/05/30 07:50:28;;;;;;;3.70;3.17;;;13.80;99.90;;;;;;5075101;28;20874;-90
2022/05/30 07:52:55;;;;;;;3.83;3.17;;;14.00;99.90;;;;;;5080574;28;20675;-89
2022/05/30 07:55:22;;;;;;;4.17;3.50;;;14.00;99.90;;;;;;5075959;28;20686;-89
2022/05/30 07:57:52;;;;;;;4.47;3.03;;;14.00;99.90;;;;;;5073164;28;20632;-88
2022/05/30 08:00:22;;;;;;;3.60;3.30;;;14.10;99.90;;;;;;5077829;28;21011;-87
2022/05/30 08:02:50;;;;;;;4.03;3.63;;;14.20;99.90;;;;;;5082087;28;20605;-90
2022/05/30 08:05:19;;;;;;;5.00;2.83;;;14.30;99.90;;;;;;5079128;28;20671;-88
2022/05/30 08:07:47;;;;;;;7.17;2.30;;;14.40;99.90;;;;;;5068709;28;20633;-88
2022/05/30 08:10:17;;;;;;;9.27;2.10;;;14.50;99.90;;;;;;5076214;28;20629;-89
2022/05/30 08:12:44;;;;;;;1.67;1.43;;;14.50;99.90;;;;;;5068393;28;20661;-89
2022/05/30 08:15:12;;;;;;;1.70;1.23;;;14.70;99.90;;;;;;5078764;28;20648;-89
2022/05/30 08:17:41;;;;;;;3.93;1.90;;;14.90;99.90;;;;;;5072088;28;20632;-90
2022/05/30 08:20:10;;;;;;;4.13;1.53;;;15.00;99.00;;;;;;5070835;28;20631;-89
2022/05/30 08:22:38;;;;;;;2.20;1.37;;;15.10;96.20;;;;;;5077518;28;20640;-90
2022/05/30 08:25:08;;;;;;;2.90;1.50;;;15.10;94.60;;;;;;5079715;28;20663;-90
2022/05/30 08:27:35;;;;;;;6.73;1.87;;;15.30;96.10;;;;;;5077982;28;20620;-90
2022/05/30 08:30:06;;;;;;;1.70;1.07;;;15.50;95.00;;;;;;5068066;28;20621;-90
2022/05/30 08:32:34;;;;;;;2.60;1.13;;;15.60;92.30;;;;;;5077645;28;21420;-91
2022/05/30 08:35:04;;;;;;;2.00;1.33;;;15.70;93.70;;;;;;5070247;28;20707;-87
2022/05/30 08:37:32;;;;;;;2.20;0.90;;;15.90;93.30;;;;;;5070306;28;20732;-88
2022/05/30 08:42:45;;;;;;;2.10;1.40;;;16.10;90.70;;;;;;5075228;28;20604;-89
2022/05/30 08:45:21;;;;;;;4.10;1.57;;;16.30;86.30;;;;;;5074195;28;20644;-87
2022/05/30 08:47:51;;;;;;;2.80;1.30;;;16.40;90.00;;;;;;5073873;28;20629;-87
2022/05/30 08:50:35;;;;;;;2.17;1.20;;;16.40;83.90;;;;;;5075329;28;20636;-87
2022/05/30 08:53:34;;;;;;;1.43;1.33;;;16.50;84.20;;;;;;5074936;28;20655;-89
2022/05/30 08:56:07;;;;;;;4.40;1.53;;;16.40;79.50;;;;;;5073390;28;20656;-87
2022/05/30 08:58:47;;;;;;;3.80;1.43;;;16.40;79.50;;;;;;5071152;28;20616;-88
2022/05/30 09:01:19;;;;;;;3.07;1.40;;;16.60;78.80;;;;;;5073581;28;20608;-88
2022/05/30 09:04:07;;;;;;;2.20;1.10;;;16.60;75.70;;;;;;5074052;28;20650;-88
2022/05/30 09:06:42;;;;;;;3.67;1.23;;;16.70;75.50;;;;;;5074882;28;20659;-87
2022/05/30 09:09:15;;;;;;;3.00;1.20;;;16.90;75.80;;;;;;5073508;28;20661;-89
2022/05/30 09:11:46;;;;;;;4.00;1.60;;;17.00;76.40;;;;;;5076441;28;20581;-87
2022/05/30 09:14:18;;;;;;;2.97;1.40;;;17.00;70.20;;;;;;5076048;28;20722;-87
2022/05/30 09:16:49;;;;;;;1.87;1.40;;;17.10;73.00;;;;;;5076298;28;20663;-88
2022/05/30 09:19:21;;;;;;;2.80;1.33;;;17.30;75.40;;;;;;5075011;28;20717;-89
2022/05/30 09:21:53;;;;;;;2.70;1.33;;;17.30;74.70;;;;;;5078645;28;20625;-89
2022/05/30 09:24:21;;;;;;;2.80;1.30;;;17.50;74.90;;;;;;5088452;28;20626;-90
2022/05/30 09:26:48;;;;;;;5.93;1.33;;;17.50;72.40;;;;;;5085816;28;20652;-90
2022/05/30 09:29:20;;;;;;;4.13;1.40;;;17.60;74.70;;;;;;5080500;28;20640;-89
2022/05/30 09:31:56;;;;;;;1.67;1.23;;;17.80;73.10;;;;;;5075390;28;20609;-89
2022/05/30 09:34:38;;;;;;;2.13;1.10;;;17.70;68.20;;;;;;5075062;28;20656;-88
2022/05/30 09:37:08;;;;;;;2.03;0.83;;;17.70;70.80;;;;;;5077239;28;21027;-88
2022/05/30 09:39:46;;;;;;;2.20;2.00;;;17.90;68.70;;;;;;5081480;28;20613;-90
2022/05/30 09:42:26;;;;;;;5.27;1.30;;;18.00;68.00;;;;;;5076469;28;20948;-90
2022/05/30 09:44:57;;;;;;;2.30;0.90;;;18.00;65.90;;;;;;5078858;28;20940;-89
2022/05/30 09:47:25;;;;;;;1.90;1.10;;;18.00;65.20;;;;;;5081985;28;20628;-89
2022/05/30 09:49:54;;;;;;;2.70;1.33;;;18.00;63.20;;;;;;5077465;28;20624;-88
2022/05/30 09:52:38;;;;;;;1.70;0.80;;;18.00;64.40;;;;;;5085713;28;20608;-88
2022/05/30 09:55:23;;;;;;;1.37;1.27;;;18.20;63.00;;;;;;5085464;28;20731;-88
2022/05/30 09:57:51;;;;;;;3.80;1.23;;;18.30;65.90;;;;;;5084189;28;20636;-89
2022/05/30 10:00:21;;;;;;;1.83;1.10;;;18.60;64.60;;;;;;5084186;28;20637;-88
2022/05/30 10:03:00;;;;;;;1.83;1.10;;;18.70;62.70;;;;;;5093250;28;20645;-88
2022/05/30 10:05:33;;;;;;;1.53;0.97;;;18.80;62.90;;;;;;5076565;28;20654;-90
2022/05/30 10:08:03;;;;;;;1.73;1.30;;;18.90;63.50;;;;;;5080974;28;20636;-88
2022/05/30 10:10:32;;;;;;;1.17;1.07;;;18.90;64.70;;;;;;5080882;28;20612;-91
2022/05/30 10:13:01;;;;;;;1.50;1.00;;;18.90;63.80;;;;;;5080894;28;20625;-90
2022/05/30 10:15:31;;;;;;;1.70;1.03;;;19.00;62.80;;;;;;5077166;28;21121;-90
2022/05/30 10:18:23;;;;;;;1.70;0.80;;;19.00;61.00;;;;;;5078937;28;20632;-91
2022/05/30 10:21:03;;;;;;;1.90;0.93;;;19.00;60.10;;;;;;5079862;28;20637;-90
2022/05/30 10:29:36;;;;;;;1.13;1.00;;;19.20;59.20;;;;;;5080154;28;20612;-89
2022/05/30 10:32:11;;;;;;;2.23;1.20;;;19.20;57.00;;;;;;5084531;28;20592;-89
2022/05/30 10:35:21;;;;;;;2.13;0.90;;;19.20;56.70;;;;;;5080381;28;20687;-88
2022/05/30 10:38:10;;;;;;;1.93;1.30;;;19.30;54.10;;;;;;5064885;28;20648;-89
2022/05/30 10:41:01;;;;;;;2.07;1.10;;;19.20;54.50;;;;;;5090818;28;20640;-87
2022/05/30 10:43:38;;;;;;;2.60;1.10;;;19.30;55.70;;;;;;5089566;28;20990;-92
2022/05/30 10:46:09;;;;;;;1.07;0.70;;;19.60;57.00;;;;;;5089944;28;20676;-88
2022/05/30 10:48:40;;;;;;;1.87;1.00;;;20.10;55.40;;;;;;5092005;28;20786;-88
2022/05/30 10:51:11;;;;;;;1.23;0.70;;;20.40;56.20;;;;;;5094992;28;21227;-88
2022/05/30 10:53:46;;;;;;;2.87;0.73;;;20.70;54.20;;;;;;5094569;28;20671;-87
2022/05/30 10:56:19;;;;;;;2.97;0.93;;;21.10;54.80;;;;;;5083802;28;20643;-90
2022/05/30 10:59:05;;;;;;;1.00;0.90;;;21.40;54.90;;;;;;5091106;28;20742;-90
2022/05/30 11:01:41;;;;;;;3.43;1.40;;;21.50;53.50;;;;;;5085847;28;20639;-89
2022/05/30 11:04:21;;;;;;;1.77;1.17;;;21.50;54.60;;;;;;5092445;28;20622;-88
2022/05/30 11:06:50;;;;;;;5.70;1.43;;;21.50;54.80;;;;;;5089292;28;21052;-90
2022/05/30 11:09:27;;;;;;;1.87;1.00;;;21.30;54.90;;;;;;5093482;28;20623;-87
2022/05/30 11:12:03;;;;;;;1.27;1.00;;;21.30;55.20;;;;;;5089429;28;20635;-86
2022/05/30 11:14:40;;;;;;;3.10;1.10;;;21.10;55.70;;;;;;5089332;28;20699;-89
2022/05/30 11:17:19;;;;;;;1.60;1.10;;;20.90;56.10;;;;;;5092156;28;20654;-87
2022/05/30 11:20:02;;;;;;;3.33;1.10;;;20.90;55.10;;;;;;5090539;28;20615;-89
2022/05/30 11:22:39;;;;;;;1.63;1.20;;;20.80;55.60;;;;;;5086500;28;20643;-88
2022/05/30 11:25:08;;;;;;;2.60;1.17;;;20.70;54.70;;;;;;5090623;28;20650;-89
2022/05/30 11:27:39;;;;;;;2.37;1.20;;;20.70;52.30;;;;;;5087093;28;20624;-88
2022/05/30 11:30:26;;;;;;;2.33;1.20;;;20.60;53.50;;;;;;5087972;28;20935;-89
2022/05/30 11:33:16;;;;;;;1.27;1.00;;;20.60;52.40;;;;;;5093285;28;21432;-89
2022/05/30 11:35:46;;;;;;;1.87;1.60;;;20.50;51.80;;;;;;5085995;28;20627;-89
2022/05/30 11:38:45;;;;;;;0.67;0.67;;;20.40;51.40;;;;;;5091534;28;20635;-87
2022/05/30 11:41:24;;;;;;;2.60;1.20;;;20.30;51.30;;;;;;5094316;28;20989;-88
2022/05/30 11:44:20;;;;;;;1.63;1.33;;;20.10;52.00;;;;;;5094033;28;20648;-88
2022/05/30 11:46:57;;;;;;;3.30;1.40;;;20.20;52.50;;;;;;5094642;28;20718;-88
2022/05/30 11:49:33;;;;;;;1.10;0.90;;;20.30;51.90;;;;;;5092051;28;20638;-88
2022/05/30 11:52:14;;;;;;;3.67;1.43;;;20.50;51.60;;;;;;5094990;28;20639;-88
2022/05/30 11:54:51;;;;;;;1.63;0.90;;;20.50;52.10;;;;;;5092163;28;20672;-88
2022/05/30 11:57:26;;;;;;;1.20;1.10;;;20.60;52.60;;;;;;5093945;28;20630;-88
2022/05/30 12:00:26;;;;;;;3.57;1.20;;;20.80;52.00;;;;;;5089002;28;20626;-89
2022/05/30 12:03:25;;;;;;;2.50;1.20;;;20.90;52.00;;;;;;5071296;28;21255;-87
2022/05/30 12:06:21;;;;;;;4.20;1.27;;;21.10;50.80;;;;;;5045527;28;20644;-87
2022/05/30 12:09:26;;;;;;;1.83;1.10;;;21.30;51.00;;;;;;5091960;28;20628;-87
2022/05/30 12:12:07;;;;;;;2.40;1.03;;;21.40;52.50;;;;;;5090833;28;20648;-88
2022/05/30 12:15:10;;;;;;;4.00;1.13;;;21.60;51.40;;;;;;5088066;28;20680;-90
2022/05/30 12:23:52;;;;;;;1.43;0.80;;;22.20;49.80;;;;;;5090498;28;20739;-89
2022/05/30 12:26:56;;;;;;;1.77;1.20;;;22.20;47.30;;;;;;5090015;28;20755;-89
2022/05/30 12:29:46;;;;;;;3.03;1.00;;;22.30;47.40;;;;;;5085303;28;20628;-89
2022/05/30 12:32:17;;;;;;;1.60;1.20;;;22.70;46.60;;;;;;5089319;28;21217;-90
2022/05/30 12:35:28;;;;;;;2.40;1.20;;;23.20;47.30;;;;;;5089902;28;20678;-88
2022/05/30 12:38:18;;;;;;;1.73;1.10;;;22.90;45.20;;;;;;5087170;28;20772;-88
2022/05/30 12:41:17;;;;;;;3.17;1.27;;;23.30;45.10;;;;;;5100191;28;20673;-88
2022/05/30 12:43:45;;;;;;;1.90;1.27;;;23.70;44.40;;;;;;5095085;28;20656;-87
2022/05/30 12:46:21;;;;;;;2.23;1.23;;;24.30;44.90;;;;;;5088292;28;20639;-90
2022/05/30 12:49:02;;;;;;;1.17;1.00;;;24.50;45.10;;;;;;5085961;28;20640;-90
2022/05/30 12:51:40;;;;;;;1.70;1.20;;;25.50;44.70;;;;;;5085452;28;20603;-88
2022/05/30 12:55:00;;;;;;;1.27;1.17;;;26.20;43.00;;;;;;5090780;28;21043;-88
2022/05/30 12:57:39;;;;;;;1.43;1.03;;;26.80;40.00;;;;;;5079920;28;20639;-87
2022/05/30 13:00:44;;;;;;;5.00;1.60;;;27.40;41.30;;;;;;5085660;28;20659;-86
2022/05/30 13:03:24;;;;;;;5.70;1.53;;;27.90;39.70;;;;;;5080197;28;20623;-87
2022/05/30 13:06:12;;;;;;;2.13;1.10;;;28.40;38.60;;;;;;5089305;28;20627;-85
2022/05/30 13:09:13;;;;;;;2.20;1.70;;;28.90;38.70;;;;;;5085554;28;20631;-86
2022/05/30 13:12:24;;;;;;;1.67;1.37;;;29.30;37.00;;;;;;5088244;28;20624;-87
2022/05/30 13:15:16;;;;;;;2.23;1.20;;;29.30;34.40;;;;;;5092858;28;20672;-90
2022/05/30 13:18:05;;;;;;;1.80;1.00;;;28.50;34.20;;;;;;5084826;28;21173;-87
2022/05/30 13:20:44;;;;;;;1.40;1.30;;;28.10;34.90;;;;;;5071575;28;21051;-88
2022/05/30 13:23:15;;;;;;;2.63;1.20;;;27.90;35.20;;;;;;5088970;28;20627;-87
2022/05/30 13:25:44;;;;;;;1.70;1.07;;;28.30;35.90;;;;;;5087575;28;20632;-90
2022/05/30 13:28:15;;;;;;;1.57;0.80;;;29.00;35.00;;;;;;5081842;28;20631;-88
2022/05/30 13:30:44;;;;;;;2.40;0.90;;;29.70;35.50;;;;;;5092704;28;20935;-88
2022/05/30 13:33:19;;;;;;;1.80;1.20;;;30.10;34.00;;;;;;5089119;28;20632;-88
2022/05/30 13:35:47;;;;;;;1.17;0.90;;;30.00;33.70;;;;;;5094038;28;20608;-89
2022/05/30 13:38:15;;;;;;;2.13;1.43;;;29.50;33.80;;;;;;5092799;28;20623;-89
2022/05/30 13:40:46;;;;;;;3.30;1.27;;;29.40;33.30;;;;;;5090002;28;20627;-88
2022/05/30 13:43:20;;;;;;;3.10;1.40;;;29.90;33.70;;;;;;5086276;28;20681;-88